sensor_id;sensor_type;location;lat;lon;timestamp;temperature;humidity
20416;DHT22;10367;52.202;5.996;2022-12-07T00:02:08;3.10;99.90
20416;DHT22;10367;52.202;5.996;2022-12-07T00:04:37;3.10;99.90
20416;DHT22;10367;52.202;5.996;2022-12-07T00:07:06;3.00;99.90
20416;DHT22;10367;52.202;5.996;2022-12-07T00:09:36;3.00;99.90
20416;DHT22;10367;52.202;5.996;2022-12-07T00:12:06;3.00;99.90
20416;DHT22;10367;52.202;5.996;2022-12-07T00:14:35;3.00;99.90
20416;DHT22;10367;52.202;5.996;2022-12-07T00:17:03;2.90;99.90
20416;DHT22;10367;52.202;5.996;2022-12-07T00:19:35;2.90;99.90
20416;DHT22;10367;52.202;5.996;2022-12-07T00:22:04;3.00;99.90
20416;DHT22;10367;52.202;5.996;2022-12-07T00:24:32;3.00;99.90
20416;DHT22;10367;52.202;5.996;2022-12-07T00:27:03;3.00;99.90
20416;DHT22;10367;52.202;5.996;2022-12-07T00:29:31;2.90;99.90
20416;DHT22;10367;52.202;5.996;2022-12-07T00:32:00;2.90;99.90
20416;DHT22;10367;52.202;5.996;2022-12-07T00:34:29;2.90;99.90
20416;DHT22;10367;52.202;5.996;2022-12-07T00:36:57;2.80;99.90
20416;DHT22;10367;52.202;5.996;2022-12-07T00:39:26;2.80;99.90
20416;DHT22;10367;52.202;5.996;2022-12-07T00:41:55;2.80;99.90
20416;DHT22;10367;52.202;5.996;2022-12-07T00:44:25;2.80;99.90
20416;DHT22;10367;52.202;5.996;2022-12-07T00:46:53;2.70;99.90
20416;DHT22;10367;52.202;5.996;2022-12-07T00:49:23;2.80;99.90
20416;DHT22;10367;52.202;5.996;2022-12-07T00:51:51;2.80;99.90
20416;DHT22;10367;52.202;5.996;2022-12-07T00:54:20;2.70;99.90
20416;DHT22;10367;52.202;5.996;2022-12-07T00:56:49;2.70;99.90
20416;DHT22;10367;52.202;5.996;2022-12-07T00:59:17;2.70;99.90
20416;DHT22;10367;52.202;5.996;2022-12-07T01:01:50;2.60;99.90
20416;DHT22;10367;52.202;5.996;2022-12-07T01:04:19;2.60;99.90
20416;DHT22;10367;52.202;5.996;2022-12-07T01:06:48;2.60;99.90
20416;DHT22;10367;52.202;5.996;2022-12-07T01:09:17;2.50;99.90
20416;DHT22;10367;52.202;5.996;2022-12-07T01:11:48;2.50;99.90
20416;DHT22;10367;52.202;5.996;2022-12-07T01:14:18;2.60;99.90
20416;DHT22;10367;52.202;5.996;2022-12-07T01:16:47;2.60;99.90
20416;DHT22;10367;52.202;5.996;2022-12-07T01:19:17;2.60;99.90
20416;DHT22;10367;52.202;5.996;2022-12-07T01:21:47;2.60;99.90
20416;DHT22;10367;52.202;5.996;2022-12-07T01:24:16;2.60;99.90
20416;DHT22;10367;52.202;5.996;2022-12-07T01:26:45;2.60;99.90
20416;DHT22;10367;52.202;5.996;2022-12-07T01:29:17;2.50;99.90
20416;DHT22;10367;52.202;5.996;2022-12-07T01:31:48;2.50;99.90
20416;DHT22;10367;52.202;5.996;2022-12-07T01:34:19;2.40;99.90
20416;DHT22;10367;52.202;5.996;2022-12-07T01:36:48;2.40;99.90
20416;DHT22;10367;52.202;5.996;2022-12-07T01:39:21;2.50;99.90
20416;DHT22;10367;52.202;5.996;2022-12-07T01:41:50;2.50;99.90
20416;DHT22;10367;52.202;5.996;2022-12-07T01:44:22;2.50;99.90
20416;DHT22;10367;52.202;5.996;2022-12-07T01:46:53;2.50;99.90
20416;DHT22;10367;52.202;5.996;2022-12-07T01:49:28;2.40;99.90
20416;DHT22;10367;52.202;5.996;2022-12-07T01:52:02;2.40;99.90
20416;DHT22;10367;52.202;5.996;2022-12-07T01:54:33;2.30;99.90
20416;DHT22;10367;52.202;5.996;2022-12-07T01:57:03;2.40;99.90
20416;DHT22;10367;52.202;5.996;2022-12-07T01:59:35;2.40;99.90
20416;DHT22;10367;52.202;5.996;2022-12-07T02:02:10;2.50;99.90
20416;DHT22;10367;52.202;5.996;2022-12-07T02:04:42;2.50;99.90
20416;DHT22;10367;52.202;5.996;2022-12-07T02:07:11;2.50;99.90
20416;DHT22;10367;52.202;5.996;2022-12-07T02:09:40;2.50;99.90
20416;DHT22;10367;52.202;5.996;2022-12-07T02:12:09;2.50;99.90
20416;DHT22;10367;52.202;5.996;2022-12-07T02:14:38;2.50;99.90
20416;DHT22;10367;52.202;5.996;2022-12-07T02:17:14;2.60;99.90
20416;DHT22;10367;52.202;5.996;2022-12-07T02:20:18;2.70;99.90
20416;DHT22;10367;52.202;5.996;2022-12-07T02:23:05;2.70;99.90
20416;DHT22;10367;52.202;5.996;2022-12-07T02:25:52;2.70;99.90
20416;DHT22;10367;52.202;5.996;2022-12-07T02:28:28;2.70;99.90
20416;DHT22;10367;52.202;5.996;2022-12-07T02:31:04;2.70;99.90
20416;DHT22;10367;52.202;5.996;2022-12-07T02:33:43;2.70;99.90
20416;DHT22;10367;52.202;5.996;2022-12-07T02:36:18;2.70;99.90
20416;DHT22;10367;52.202;5.996;2022-12-07T02:38:58;2.60;99.90
20416;DHT22;10367;52.202;5.996;2022-12-07T02:41:33;2.70;99.90
20416;DHT22;10367;52.202;5.996;2022-12-07T02:44:07;2.70;99.90
20416;DHT22;10367;52.202;5.996;2022-12-07T02:46:40;2.70;99.90
20416;DHT22;10367;52.202;5.996;2022-12-07T02:49:10;2.70;99.90
20416;DHT22;10367;52.202;5.996;2022-12-07T02:51:42;2.70;99.90
20416;DHT22;10367;52.202;5.996;2022-12-07T02:54:12;2.70;99.90
20416;DHT22;10367;52.202;5.996;2022-12-07T02:56:48;2.80;99.90
20416;DHT22;10367;52.202;5.996;2022-12-07T02:59:23;2.80;99.90
20416;DHT22;10367;52.202;5.996;2022-12-07T03:02:03;2.80;99.90
20416;DHT22;10367;52.202;5.996;2022-12-07T03:04:42;2.90;99.90
20416;DHT22;10367;52.202;5.996;2022-12-07T03:07:18;2.90;99.90
20416;DHT22;10367;52.202;5.996;2022-12-07T03:09:55;3.00;99.90
20416;DHT22;10367;52.202;5.996;2022-12-07T03:12:31;3.00;99.90
20416;DHT22;10367;52.202;5.996;2022-12-07T03:15:04;3.00;99.90
20416;DHT22;10367;52.202;5.996;2022-12-07T03:17:40;3.10;99.90
20416;DHT22;10367;52.202;5.996;2022-12-07T03:20:12;3.10;99.90
20416;DHT22;10367;52.202;5.996;2022-12-07T03:22:43;3.10;99.90
20416;DHT22;10367;52.202;5.996;2022-12-07T03:25:17;3.20;99.90
20416;DHT22;10367;52.202;5.996;2022-12-07T03:27:51;3.20;99.90
20416;DHT22;10367;52.202;5.996;2022-12-07T03:30:26;3.30;99.90
20416;DHT22;10367;52.202;5.996;2022-12-07T03:33:03;3.30;99.90
20416;DHT22;10367;52.202;5.996;2022-12-07T03:35:36;3.30;99.90
20416;DHT22;10367;52.202;5.996;2022-12-07T03:38:11;3.30;99.90
20416;DHT22;10367;52.202;5.996;2022-12-07T03:40:46;3.10;99.90
20416;DHT22;10367;52.202;5.996;2022-12-07T03:43:18;3.00;99.90
20416;DHT22;10367;52.202;5.996;2022-12-07T03:45:53;2.90;99.90
20416;DHT22;10367;52.202;5.996;2022-12-07T03:48:34;2.80;99.90
20416;DHT22;10367;52.202;5.996;2022-12-07T03:51:09;2.70;99.90
20416;DHT22;10367;52.202;5.996;2022-12-07T03:53:44;2.70;99.90
20416;DHT22;10367;52.202;5.996;2022-12-07T03:56:14;2.60;99.90
20416;DHT22;10367;52.202;5.996;2022-12-07T03:58:44;2.50;99.90
20416;DHT22;10367;52.202;5.996;2022-12-07T04:01:12;2.50;99.90
20416;DHT22;10367;52.202;5.996;2022-12-07T04:03:43;2.60;99.90
20416;DHT22;10367;52.202;5.996;2022-12-07T04:06:11;2.60;99.90
20416;DHT22;10367;52.202;5.996;2022-12-07T04:08:40;2.70;99.90
20416;DHT22;10367;52.202;5.996;2022-12-07T04:11:09;2.70;99.90
20416;DHT22;10367;52.202;5.996;2022-12-07T04:13:41;2.80;99.90
20416;DHT22;10367;52.202;5.996;2022-12-07T04:16:27;2.80;99.90
20416;DHT22;10367;52.202;5.996;2022-12-07T04:18:58;2.90;99.90
20416;DHT22;10367;52.202;5.996;2022-12-07T04:21:26;2.80;99.90
20416;DHT22;10367;52.202;5.996;2022-12-07T04:23:55;2.70;99.90
20416;DHT22;10367;52.202;5.996;2022-12-07T04:26:27;2.70;99.90
20416;DHT22;10367;52.202;5.996;2022-12-07T04:28:56;2.50;99.90
20416;DHT22;10367;52.202;5.996;2022-12-07T04:31:34;2.50;99.90
20416;DHT22;10367;52.202;5.996;2022-12-07T04:34:05;2.40;99.90
20416;DHT22;10367;52.202;5.996;2022-12-07T04:36:34;2.40;99.90
20416;DHT22;10367;52.202;5.996;2022-12-07T04:39:04;2.30;99.90
20416;DHT22;10367;52.202;5.996;2022-12-07T04:41:33;2.20;99.90
20416;DHT22;10367;52.202;5.996;2022-12-07T04:44:05;2.20;99.90
20416;DHT22;10367;52.202;5.996;2022-12-07T04:46:34;2.30;99.90
20416;DHT22;10367;52.202;5.996;2022-12-07T04:49:05;2.40;99.90
20416;DHT22;10367;52.202;5.996;2022-12-07T04:51:33;2.40;99.90
20416;DHT22;10367;52.202;5.996;2022-12-07T04:54:05;2.30;99.90
20416;DHT22;10367;52.202;5.996;2022-12-07T04:56:34;2.30;99.90
20416;DHT22;10367;52.202;5.996;2022-12-07T04:59:05;2.20;99.90
20416;DHT22;10367;52.202;5.996;2022-12-07T05:01:34;2.20;99.90
20416;DHT22;10367;52.202;5.996;2022-12-07T05:04:04;2.10;99.90
20416;DHT22;10367;52.202;5.996;2022-12-07T05:06:33;2.00;99.90
20416;DHT22;10367;52.202;5.996;2022-12-07T05:09:03;2.00;99.90
20416;DHT22;10367;52.202;5.996;2022-12-07T05:11:32;2.00;99.90
20416;DHT22;10367;52.202;5.996;2022-12-07T05:14:10;1.90;99.90
20416;DHT22;10367;52.202;5.996;2022-12-07T05:16:40;1.90;99.90
20416;DHT22;10367;52.202;5.996;2022-12-07T05:19:11;1.90;99.90
20416;DHT22;10367;52.202;5.996;2022-12-07T05:21:43;1.90;99.90
20416;DHT22;10367;52.202;5.996;2022-12-07T05:24:16;1.80;99.90
20416;DHT22;10367;52.202;5.996;2022-12-07T05:26:45;1.90;99.90
20416;DHT22;10367;52.202;5.996;2022-12-07T05:29:15;1.90;99.90
20416;DHT22;10367;52.202;5.996;2022-12-07T05:31:44;2.00;99.90
20416;DHT22;10367;52.202;5.996;2022-12-07T05:34:16;2.10;99.90
20416;DHT22;10367;52.202;5.996;2022-12-07T05:36:45;2.10;99.90
20416;DHT22;10367;52.202;5.996;2022-12-07T05:39:14;2.10;99.90
20416;DHT22;10367;52.202;5.996;2022-12-07T05:41:42;2.00;99.90
20416;DHT22;10367;52.202;5.996;2022-12-07T05:44:28;2.00;99.90
20416;DHT22;10367;52.202;5.996;2022-12-07T05:46:57;2.00;99.90
20416;DHT22;10367;52.202;5.996;2022-12-07T05:49:28;2.00;99.90
20416;DHT22;10367;52.202;5.996;2022-12-07T05:51:57;2.00;99.90
20416;DHT22;10367;52.202;5.996;2022-12-07T05:54:26;2.00;99.90
20416;DHT22;10367;52.202;5.996;2022-12-07T05:56:55;2.00;99.90
20416;DHT22;10367;52.202;5.996;2022-12-07T05:59:24;2.10;99.90
20416;DHT22;10367;52.202;5.996;2022-12-07T06:01:55;2.10;99.90
20416;DHT22;10367;52.202;5.996;2022-12-07T06:04:27;2.10;99.90
20416;DHT22;10367;52.202;5.996;2022-12-07T06:06:56;2.10;99.90
20416;DHT22;10367;52.202;5.996;2022-12-07T06:09:26;2.10;99.90
20416;DHT22;10367;52.202;5.996;2022-12-07T06:11:58;2.00;99.90
20416;DHT22;10367;52.202;5.996;2022-12-07T06:14:44;2.00;99.90
20416;DHT22;10367;52.202;5.996;2022-12-07T06:17:13;2.00;99.90
20416;DHT22;10367;52.202;5.996;2022-12-07T06:19:43;2.00;99.90
20416;DHT22;10367;52.202;5.996;2022-12-07T06:22:12;2.00;99.90
20416;DHT22;10367;52.202;5.996;2022-12-07T06:24:44;1.90;99.90
20416;DHT22;10367;52.202;5.996;2022-12-07T06:27:13;1.90;99.90
20416;DHT22;10367;52.202;5.996;2022-12-07T06:29:44;1.90;99.90
20416;DHT22;10367;52.202;5.996;2022-12-07T06:32:13;1.80;99.90
20416;DHT22;10367;52.202;5.996;2022-12-07T06:34:43;1.90;99.90
20416;DHT22;10367;52.202;5.996;2022-12-07T06:37:13;1.90;99.90
20416;DHT22;10367;52.202;5.996;2022-12-07T06:39:42;1.90;99.90
20416;DHT22;10367;52.202;5.996;2022-12-07T06:42:11;1.90;99.90
20416;DHT22;10367;52.202;5.996;2022-12-07T06:44:40;1.80;99.90
20416;DHT22;10367;52.202;5.996;2022-12-07T06:47:08;1.80;99.90
20416;DHT22;10367;52.202;5.996;2022-12-07T06:50:00;1.80;99.90
20416;DHT22;10367;52.202;5.996;2022-12-07T06:52:30;1.80;99.90
20416;DHT22;10367;52.202;5.996;2022-12-07T06:54:59;1.70;99.90
20416;DHT22;10367;52.202;5.996;2022-12-07T06:57:27;1.70;99.90
20416;DHT22;10367;52.202;5.996;2022-12-07T06:59:56;1.70;99.90
20416;DHT22;10367;52.202;5.996;2022-12-07T07:02:25;1.60;99.90
20416;DHT22;10367;52.202;5.996;2022-12-07T07:04:54;1.70;99.90
20416;DHT22;10367;52.202;5.996;2022-12-07T07:07:24;1.70;99.90
20416;DHT22;10367;52.202;5.996;2022-12-07T07:09:53;1.60;99.90
20416;DHT22;10367;52.202;5.996;2022-12-07T07:12:22;1.60;99.90
20416;DHT22;10367;52.202;5.996;2022-12-07T07:14:51;1.60;99.90
20416;DHT22;10367;52.202;5.996;2022-12-07T07:17:20;1.60;99.90
20416;DHT22;10367;52.202;5.996;2022-12-07T07:19:49;1.60;99.90
20416;DHT22;10367;52.202;5.996;2022-12-07T07:22:20;1.60;99.90
20416;DHT22;10367;52.202;5.996;2022-12-07T07:24:51;1.70;99.90
20416;DHT22;10367;52.202;5.996;2022-12-07T07:27:22;1.60;99.90
20416;DHT22;10367;52.202;5.996;2022-12-07T07:29:51;1.60;99.90
20416;DHT22;10367;52.202;5.996;2022-12-07T07:32:20;1.50;99.90
20416;DHT22;10367;52.202;5.996;2022-12-07T07:34:49;1.50;99.90
20416;DHT22;10367;52.202;5.996;2022-12-07T07:37:17;1.60;99.90
20416;DHT22;10367;52.202;5.996;2022-12-07T07:39:48;1.50;99.90
20416;DHT22;10367;52.202;5.996;2022-12-07T07:42:18;1.60;99.90
20416;DHT22;10367;52.202;5.996;2022-12-07T07:44:47;1.70;99.90
20416;DHT22;10367;52.202;5.996;2022-12-07T07:47:16;1.80;99.90
20416;DHT22;10367;52.202;5.996;2022-12-07T07:49:44;2.00;99.90
20416;DHT22;10367;52.202;5.996;2022-12-07T07:52:26;2.10;99.90
20416;DHT22;10367;52.202;5.996;2022-12-07T07:54:55;2.30;99.90
20416;DHT22;10367;52.202;5.996;2022-12-07T07:57:25;2.30;99.90
20416;DHT22;10367;52.202;5.996;2022-12-07T07:59:54;2.40;99.90
20416;DHT22;10367;52.202;5.996;2022-12-07T08:02:23;2.50;99.90
20416;DHT22;10367;52.202;5.996;2022-12-07T08:04:52;2.60;99.90
20416;DHT22;10367;52.202;5.996;2022-12-07T08:07:20;2.60;99.90
20416;DHT22;10367;52.202;5.996;2022-12-07T08:09:49;2.60;99.90
20416;DHT22;10367;52.202;5.996;2022-12-07T08:12:18;2.60;99.90
20416;DHT22;10367;52.202;5.996;2022-12-07T08:14:48;2.50;99.90
20416;DHT22;10367;52.202;5.996;2022-12-07T08:17:16;2.50;99.90
20416;DHT22;10367;52.202;5.996;2022-12-07T08:19:45;2.40;99.90
20416;DHT22;10367;52.202;5.996;2022-12-07T08:22:14;2.40;99.90
20416;DHT22;10367;52.202;5.996;2022-12-07T08:24:42;2.40;99.90
20416;DHT22;10367;52.202;5.996;2022-12-07T08:27:11;2.40;99.90
20416;DHT22;10367;52.202;5.996;2022-12-07T08:29:39;2.40;99.90
20416;DHT22;10367;52.202;5.996;2022-12-07T08:32:09;2.50;99.90
20416;DHT22;10367;52.202;5.996;2022-12-07T08:34:38;2.50;99.90
20416;DHT22;10367;52.202;5.996;2022-12-07T08:37:07;2.60;99.90
20416;DHT22;10367;52.202;5.996;2022-12-07T08:39:35;2.70;99.90
20416;DHT22;10367;52.202;5.996;2022-12-07T08:42:04;2.80;99.90
20416;DHT22;10367;52.202;5.996;2022-12-07T08:44:33;3.00;99.90
20416;DHT22;10367;52.202;5.996;2022-12-07T08:47:04;3.10;99.90
20416;DHT22;10367;52.202;5.996;2022-12-07T08:49:37;3.20;99.90
20416;DHT22;10367;52.202;5.996;2022-12-07T08:52:07;3.20;99.90
20416;DHT22;10367;52.202;5.996;2022-12-07T08:54:37;3.20;99.90
20416;DHT22;10367;52.202;5.996;2022-12-07T08:57:07;3.20;99.90
20416;DHT22;10367;52.202;5.996;2022-12-07T08:59:37;3.20;99.90
20416;DHT22;10367;52.202;5.996;2022-12-07T09:02:06;3.20;99.90
20416;DHT22;10367;52.202;5.996;2022-12-07T09:04:36;3.10;99.90
20416;DHT22;10367;52.202;5.996;2022-12-07T09:07:05;3.10;99.90
20416;DHT22;10367;52.202;5.996;2022-12-07T09:09:34;3.10;99.90
20416;DHT22;10367;52.202;5.996;2022-12-07T09:12:03;3.00;99.90
20416;DHT22;10367;52.202;5.996;2022-12-07T09:14:32;3.00;99.90
20416;DHT22;10367;52.202;5.996;2022-12-07T09:17:06;3.00;99.90
20416;DHT22;10367;52.202;5.996;2022-12-07T09:19:36;3.00;99.90
20416;DHT22;10367;52.202;5.996;2022-12-07T09:22:05;2.90;99.90
20416;DHT22;10367;52.202;5.996;2022-12-07T09:24:34;2.90;99.90
20416;DHT22;10367;52.202;5.996;2022-12-07T09:27:03;2.90;99.90
20416;DHT22;10367;52.202;5.996;2022-12-07T09:29:32;3.00;99.90
20416;DHT22;10367;52.202;5.996;2022-12-07T09:32:01;3.00;99.90
20416;DHT22;10367;52.202;5.996;2022-12-07T09:34:38;3.00;99.90
20416;DHT22;10367;52.202;5.996;2022-12-07T09:37:07;3.00;99.90
20416;DHT22;10367;52.202;5.996;2022-12-07T09:39:38;3.00;99.90
20416;DHT22;10367;52.202;5.996;2022-12-07T09:42:26;3.10;99.90
20416;DHT22;10367;52.202;5.996;2022-12-07T09:44:56;3.10;99.90
20416;DHT22;10367;52.202;5.996;2022-12-07T09:47:25;3.20;99.90
20416;DHT22;10367;52.202;5.996;2022-12-07T09:50:03;3.30;99.90
20416;DHT22;10367;52.202;5.996;2022-12-07T09:52:32;3.50;99.90
20416;DHT22;10367;52.202;5.996;2022-12-07T09:55:11;3.50;99.90
20416;DHT22;10367;52.202;5.996;2022-12-07T09:57:40;3.60;99.90
20416;DHT22;10367;52.202;5.996;2022-12-07T10:00:13;3.70;99.90
20416;DHT22;10367;52.202;5.996;2022-12-07T10:02:46;3.80;99.90
20416;DHT22;10367;52.202;5.996;2022-12-07T10:05:19;4.00;99.90
20416;DHT22;10367;52.202;5.996;2022-12-07T10:07:51;4.30;99.90
20416;DHT22;10367;52.202;5.996;2022-12-07T10:10:25;4.70;99.90
20416;DHT22;10367;52.202;5.996;2022-12-07T10:12:58;5.10;99.90
20416;DHT22;10367;52.202;5.996;2022-12-07T10:15:49;5.30;99.90
20416;DHT22;10367;52.202;5.996;2022-12-07T10:18:27;5.40;99.90
20416;DHT22;10367;52.202;5.996;2022-12-07T10:21:15;5.40;99.90
20416;DHT22;10367;52.202;5.996;2022-12-07T10:24:00;5.30;99.90
20416;DHT22;10367;52.202;5.996;2022-12-07T10:26:33;5.10;99.90
20416;DHT22;10367;52.202;5.996;2022-12-07T10:29:13;4.90;99.90
20416;DHT22;10367;52.202;5.996;2022-12-07T10:31:42;4.80;99.90
20416;DHT22;10367;52.202;5.996;2022-12-07T10:34:21;4.80;99.90
20416;DHT22;10367;52.202;5.996;2022-12-07T10:36:53;5.10;99.90
20416;DHT22;10367;52.202;5.996;2022-12-07T10:39:41;5.40;99.90
20416;DHT22;10367;52.202;5.996;2022-12-07T10:42:17;5.70;99.90
20416;DHT22;10367;52.202;5.996;2022-12-07T10:44:47;5.60;99.90
20416;DHT22;10367;52.202;5.996;2022-12-07T10:47:32;5.40;99.90
20416;DHT22;10367;52.202;5.996;2022-12-07T10:50:25;5.20;99.90
20416;DHT22;10367;52.202;5.996;2022-12-07T10:53:12;5.10;99.90
20416;DHT22;10367;52.202;5.996;2022-12-07T10:56:01;5.00;99.90
20416;DHT22;10367;52.202;5.996;2022-12-07T10:58:47;5.10;99.90
20416;DHT22;10367;52.202;5.996;2022-12-07T11:01:25;5.30;99.90
20416;DHT22;10367;52.202;5.996;2022-12-07T11:04:25;5.40;99.90
20416;DHT22;10367;52.202;5.996;2022-12-07T11:07:00;5.50;99.90
20416;DHT22;10367;52.202;5.996;2022-12-07T11:09:54;5.60;99.90
20416;DHT22;10367;52.202;5.996;2022-12-07T11:12:54;5.60;99.90
20416;DHT22;10367;52.202;5.996;2022-12-07T11:15:34;5.70;99.90
20416;DHT22;10367;52.202;5.996;2022-12-07T11:18:13;5.80;99.90
20416;DHT22;10367;52.202;5.996;2022-12-07T11:20:52;5.80;99.90
20416;DHT22;10367;52.202;5.996;2022-12-07T11:23:31;5.90;99.90
20416;DHT22;10367;52.202;5.996;2022-12-07T11:26:16;5.90;99.90
20416;DHT22;10367;52.202;5.996;2022-12-07T11:29:02;5.90;99.90
20416;DHT22;10367;52.202;5.996;2022-12-07T11:31:39;5.90;99.90
20416;DHT22;10367;52.202;5.996;2022-12-07T11:34:18;6.00;99.90
20416;DHT22;10367;52.202;5.996;2022-12-07T11:36:52;6.20;99.90
20416;DHT22;10367;52.202;5.996;2022-12-07T11:39:26;6.50;99.90
20416;DHT22;10367;52.202;5.996;2022-12-07T11:42:01;6.30;99.90
20416;DHT22;10367;52.202;5.996;2022-12-07T11:44:38;6.10;99.90
20416;DHT22;10367;52.202;5.996;2022-12-07T11:47:12;5.90;99.90
20416;DHT22;10367;52.202;5.996;2022-12-07T11:49:47;5.80;99.90
20416;DHT22;10367;52.202;5.996;2022-12-07T11:52:24;5.80;99.90
20416;DHT22;10367;52.202;5.996;2022-12-07T11:54:54;6.10;99.90
20416;DHT22;10367;52.202;5.996;2022-12-07T11:57:31;6.40;99.90
20416;DHT22;10367;52.202;5.996;2022-12-07T12:00:06;6.60;99.90
20416;DHT22;10367;52.202;5.996;2022-12-07T12:02:41;6.80;99.90
20416;DHT22;10367;52.202;5.996;2022-12-07T12:05:16;7.00;99.90
20416;DHT22;10367;52.202;5.996;2022-12-07T12:07:48;7.10;99.90
20416;DHT22;10367;52.202;5.996;2022-12-07T12:10:51;7.30;99.90
20416;DHT22;10367;52.202;5.996;2022-12-07T12:19:42;7.80;99.90
20416;DHT22;10367;52.202;5.996;2022-12-07T12:22:16;7.60;99.90
20416;DHT22;10367;52.202;5.996;2022-12-07T12:24:48;7.40;99.90
20416;DHT22;10367;52.202;5.996;2022-12-07T12:27:23;7.30;99.90
20416;DHT22;10367;52.202;5.996;2022-12-07T12:29:55;7.20;99.90
20416;DHT22;10367;52.202;5.996;2022-12-07T12:32:35;7.00;99.90
20416;DHT22;10367;52.202;5.996;2022-12-07T12:35:31;6.90;99.90
20416;DHT22;10367;52.202;5.996;2022-12-07T12:38:31;6.70;99.90
20416;DHT22;10367;52.202;5.996;2022-12-07T12:41:02;6.70;99.90
20416;DHT22;10367;52.202;5.996;2022-12-07T12:43:41;6.80;99.90
20416;DHT22;10367;52.202;5.996;2022-12-07T12:46:36;7.10;99.90
20416;DHT22;10367;52.202;5.996;2022-12-07T12:49:37;7.20;99.90
20416;DHT22;10367;52.202;5.996;2022-12-07T12:58:42;7.60;99.90
20416;DHT22;10367;52.202;5.996;2022-12-07T13:01:41;7.60;99.90
20416;DHT22;10367;52.202;5.996;2022-12-07T13:04:37;7.60;99.90
20416;DHT22;10367;52.202;5.996;2022-12-07T13:07:12;7.70;99.90
20416;DHT22;10367;52.202;5.996;2022-12-07T13:09:43;7.70;99.90
20416;DHT22;10367;52.202;5.996;2022-12-07T13:12:15;7.60;99.90
20416;DHT22;10367;52.202;5.996;2022-12-07T13:14:57;7.60;99.90
20416;DHT22;10367;52.202;5.996;2022-12-07T13:17:56;7.70;99.90
20416;DHT22;10367;52.202;5.996;2022-12-07T13:20:53;7.50;99.90
20416;DHT22;10367;52.202;5.996;2022-12-07T13:23:29;7.40;99.90
20416;DHT22;10367;52.202;5.996;2022-12-07T13:26:12;7.40;99.90
20416;DHT22;10367;52.202;5.996;2022-12-07T13:28:46;7.50;99.90
20416;DHT22;10367;52.202;5.996;2022-12-07T13:31:34;7.70;99.90
20416;DHT22;10367;52.202;5.996;2022-12-07T13:34:04;7.80;99.90
20416;DHT22;10367;52.202;5.996;2022-12-07T13:36:38;7.90;99.90
20416;DHT22;10367;52.202;5.996;2022-12-07T13:39:18;8.00;99.90
20416;DHT22;10367;52.202;5.996;2022-12-07T13:41:51;7.90;99.90
20416;DHT22;10367;52.202;5.996;2022-12-07T13:44:20;7.80;99.90
20416;DHT22;10367;52.202;5.996;2022-12-07T13:46:54;7.70;99.90
20416;DHT22;10367;52.202;5.996;2022-12-07T13:49:25;7.40;99.90
20416;DHT22;10367;52.202;5.996;2022-12-07T13:52:12;7.20;99.90
20416;DHT22;10367;52.202;5.996;2022-12-07T13:54:45;7.10;99.90
20416;DHT22;10367;52.202;5.996;2022-12-07T13:57:14;7.10;99.90
20416;DHT22;10367;52.202;5.996;2022-12-07T13:59:42;7.00;99.90
20416;DHT22;10367;52.202;5.996;2022-12-07T14:02:18;7.00;99.90
20416;DHT22;10367;52.202;5.996;2022-12-07T14:04:49;7.10;99.90
20416;DHT22;10367;52.202;5.996;2022-12-07T14:07:27;7.10;99.90
20416;DHT22;10367;52.202;5.996;2022-12-07T14:09:57;7.10;99.90
20416;DHT22;10367;52.202;5.996;2022-12-07T14:12:29;7.00;99.90
20416;DHT22;10367;52.202;5.996;2022-12-07T14:14:59;7.00;99.90
20416;DHT22;10367;52.202;5.996;2022-12-07T14:17:29;7.00;99.90
20416;DHT22;10367;52.202;5.996;2022-12-07T14:20:01;6.90;99.90
20416;DHT22;10367;52.202;5.996;2022-12-07T14:22:34;6.90;99.90
20416;DHT22;10367;52.202;5.996;2022-12-07T14:25:23;6.80;99.90
20416;DHT22;10367;52.202;5.996;2022-12-07T14:27:54;6.70;99.90
20416;DHT22;10367;52.202;5.996;2022-12-07T14:30:29;6.70;99.90
20416;DHT22;10367;52.202;5.996;2022-12-07T14:32:59;6.50;99.90
20416;DHT22;10367;52.202;5.996;2022-12-07T14:35:32;6.30;99.90
20416;DHT22;10367;52.202;5.996;2022-12-07T14:38:02;6.10;99.90
20416;DHT22;10367;52.202;5.996;2022-12-07T14:40:31;5.90;99.90
20416;DHT22;10367;52.202;5.996;2022-12-07T14:43:03;5.60;99.90
20416;DHT22;10367;52.202;5.996;2022-12-07T14:45:32;5.40;99.90
20416;DHT22;10367;52.202;5.996;2022-12-07T14:48:02;5.30;99.90
20416;DHT22;10367;52.202;5.996;2022-12-07T14:50:52;5.20;99.90
20416;DHT22;10367;52.202;5.996;2022-12-07T14:53:49;5.20;99.90
20416;DHT22;10367;52.202;5.996;2022-12-07T14:56:23;5.10;99.90
20416;DHT22;10367;52.202;5.996;2022-12-07T14:58:52;5.00;99.90
20416;DHT22;10367;52.202;5.996;2022-12-07T15:01:21;4.90;99.90
20416;DHT22;10367;52.202;5.996;2022-12-07T15:03:50;4.90;99.90
20416;DHT22;10367;52.202;5.996;2022-12-07T15:06:21;4.90;99.90
20416;DHT22;10367;52.202;5.996;2022-12-07T15:08:53;4.80;99.90
20416;DHT22;10367;52.202;5.996;2022-12-07T15:11:22;4.70;99.90
20416;DHT22;10367;52.202;5.996;2022-12-07T15:13:51;4.70;99.90
20416;DHT22;10367;52.202;5.996;2022-12-07T15:16:41;4.70;99.90
20416;DHT22;10367;52.202;5.996;2022-12-07T15:19:30;4.70;99.90
20416;DHT22;10367;52.202;5.996;2022-12-07T15:21:59;4.70;99.90
20416;DHT22;10367;52.202;5.996;2022-12-07T15:24:29;4.60;99.90
20416;DHT22;10367;52.202;5.996;2022-12-07T15:27:00;4.60;99.90
20416;DHT22;10367;52.202;5.996;2022-12-07T15:29:29;4.60;99.90
20416;DHT22;10367;52.202;5.996;2022-12-07T15:31:58;4.70;99.90
20416;DHT22;10367;52.202;5.996;2022-12-07T15:34:27;4.70;99.90
20416;DHT22;10367;52.202;5.996;2022-12-07T15:37:06;4.70;99.90
20416;DHT22;10367;52.202;5.996;2022-12-07T15:39:37;4.70;99.90
20416;DHT22;10367;52.202;5.996;2022-12-07T15:42:06;4.70;99.90
20416;DHT22;10367;52.202;5.996;2022-12-07T15:44:35;4.70;99.90
20416;DHT22;10367;52.202;5.996;2022-12-07T15:47:21;4.70;99.90
20416;DHT22;10367;52.202;5.996;2022-12-07T15:49:50;4.70;99.90
20416;DHT22;10367;52.202;5.996;2022-12-07T15:52:19;4.70;99.90
20416;DHT22;10367;52.202;5.996;2022-12-07T15:54:49;4.70;99.90
20416;DHT22;10367;52.202;5.996;2022-12-07T15:57:17;4.70;99.90
20416;DHT22;10367;52.202;5.996;2022-12-07T15:59:52;4.70;99.90
20416;DHT22;10367;52.202;5.996;2022-12-07T16:02:21;4.70;99.90
20416;DHT22;10367;52.202;5.996;2022-12-07T16:04:51;4.70;99.90
20416;DHT22;10367;52.202;5.996;2022-12-07T16:07:20;4.60;99.90
20416;DHT22;10367;52.202;5.996;2022-12-07T16:09:50;4.60;99.90
20416;DHT22;10367;52.202;5.996;2022-12-07T16:12:19;4.60;99.90
20416;DHT22;10367;52.202;5.996;2022-12-07T16:14:47;4.50;99.90
20416;DHT22;10367;52.202;5.996;2022-12-07T16:17:16;4.50;99.90
20416;DHT22;10367;52.202;5.996;2022-12-07T16:19:45;4.50;99.90
20416;DHT22;10367;52.202;5.996;2022-12-07T16:22:13;4.50;99.90
20416;DHT22;10367;52.202;5.996;2022-12-07T16:24:42;4.50;99.90
20416;DHT22;10367;52.202;5.996;2022-12-07T16:27:12;4.50;99.90
20416;DHT22;10367;52.202;5.996;2022-12-07T16:29:40;4.40;99.90
20416;DHT22;10367;52.202;5.996;2022-12-07T16:32:09;4.40;99.90
20416;DHT22;10367;52.202;5.996;2022-12-07T16:34:39;4.30;99.90
20416;DHT22;10367;52.202;5.996;2022-12-07T16:37:08;4.30;99.90